Foam Lake, Canada
Current Conditions -  °F | °C
As of 6:00 AM on Thursday 27 Nov 2014 (Local Time) from CYQV Reporting Station
Overcast Overcast  
Wind Chill: -15°   Ceiling: 700
Heat Index: -4°   Visibility: 9mi
Dew Point: -8°   Wind: 5mph
Humidity: 85%   Direction: 130°SE
Pressure: 30.23"   Gusts: NA
Location:  51.65°N, 103.53°W
Report Text: CYQV 271200Z AUTO 13004KT 9SM OVC007 M20/M22 A3023 RMK SLP296
Loading
Personal Weather Stations






























Interactive Weather Map New forecast layout! Learn more

10-Day Weather Forecast

Advertisements
Track Severe Weather on mobile